sensor_id;sensor_type;location;lat;lon;timestamp;P1;durP1;ratioP1;P2;durP2;ratioP2
14316;SDS011;7242;50.858;6.586;2024-02-04T00:01:17;5.20;;;4.10;;
14316;SDS011;7242;50.858;6.586;2024-02-04T00:04:18;4.57;;;4.17;;
14316;SDS011;7242;50.858;6.586;2024-02-04T00:07:19;4.43;;;4.07;;
14316;SDS011;7242;50.858;6.586;2024-02-04T00:10:20;4.23;;;3.83;;
14316;SDS011;7242;50.858;6.586;2024-02-04T00:13:21;3.70;;;3.40;;
14316;SDS011;7242;50.858;6.586;2024-02-04T00:16:22;3.90;;;3.53;;
14316;SDS011;7242;50.858;6.586;2024-02-04T00:19:23;3.87;;;3.57;;
14316;SDS011;7242;50.858;6.586;2024-02-04T00:22:24;3.07;;;2.87;;
14316;SDS011;7242;50.858;6.586;2024-02-04T00:25:25;2.83;;;2.63;;
14316;SDS011;7242;50.858;6.586;2024-02-04T00:28:29;2.93;;;2.73;;
14316;SDS011;7242;50.858;6.586;2024-02-04T00:31:30;2.80;;;2.60;;
14316;SDS011;7242;50.858;6.586;2024-02-04T00:34:31;2.37;;;2.17;;
14316;SDS011;7242;50.858;6.586;2024-02-04T00:37:33;2.63;;;2.43;;
14316;SDS011;7242;50.858;6.586;2024-02-04T00:40:34;2.07;;;1.90;;
14316;SDS011;7242;50.858;6.586;2024-02-04T00:43:35;2.20;;;2.00;;
14316;SDS011;7242;50.858;6.586;2024-02-04T00:46:36;2.13;;;1.97;;
14316;SDS011;7242;50.858;6.586;2024-02-04T00:49:37;1.80;;;1.70;;
14316;SDS011;7242;50.858;6.586;2024-02-04T00:52:39;2.57;;;1.70;;
14316;SDS011;7242;50.858;6.586;2024-02-04T00:55:40;1.90;;;1.80;;
14316;SDS011;7242;50.858;6.586;2024-02-04T00:58:41;2.10;;;2.00;;
14316;SDS011;7242;50.858;6.586;2024-02-04T01:01:42;2.47;;;2.00;;
14316;SDS011;7242;50.858;6.586;2024-02-04T01:04:43;1.93;;;1.83;;
14316;SDS011;7242;50.858;6.586;2024-02-04T01:07:44;1.80;;;1.70;;
14316;SDS011;7242;50.858;6.586;2024-02-04T01:10:45;2.37;;;1.93;;
14316;SDS011;7242;50.858;6.586;2024-02-04T01:13:47;2.33;;;1.90;;
14316;SDS011;7242;50.858;6.586;2024-02-04T01:16:47;1.90;;;1.80;;
14316;SDS011;7242;50.858;6.586;2024-02-04T01:19:48;2.13;;;1.93;;
14316;SDS011;7242;50.858;6.586;2024-02-04T01:22:49;2.10;;;2.00;;
14316;SDS011;7242;50.858;6.586;2024-02-04T01:25:50;1.80;;;1.70;;
14316;SDS011;7242;50.858;6.586;2024-02-04T01:28:51;1.17;;;1.17;;
14316;SDS011;7242;50.858;6.586;2024-02-04T01:31:53;1.63;;;1.40;;
14316;SDS011;7242;50.858;6.586;2024-02-04T01:34:54;1.67;;;1.20;;
14316;SDS011;7242;50.858;6.586;2024-02-04T01:37:55;1.23;;;1.13;;
14316;SDS011;7242;50.858;6.586;2024-02-04T01:40:56;1.07;;;1.00;;
14316;SDS011;7242;50.858;6.586;2024-02-04T01:43:58;1.47;;;1.20;;
14316;SDS011;7242;50.858;6.586;2024-02-04T01:46:59;1.10;;;1.00;;
14316;SDS011;7242;50.858;6.586;2024-02-04T01:50:01;0.97;;;0.97;;
14316;SDS011;7242;50.858;6.586;2024-02-04T01:53:04;1.40;;;1.07;;
14316;SDS011;7242;50.858;6.586;2024-02-04T01:56:05;1.10;;;1.00;;
14316;SDS011;7242;50.858;6.586;2024-02-04T01:59:06;2.33;;;1.30;;
14316;SDS011;7242;50.858;6.586;2024-02-04T02:02:08;1.40;;;1.10;;
14316;SDS011;7242;50.858;6.586;2024-02-04T02:05:09;1.07;;;1.07;;
14316;SDS011;7242;50.858;6.586;2024-02-04T02:08:11;1.37;;;1.27;;
14316;SDS011;7242;50.858;6.586;2024-02-04T02:11:13;1.10;;;1.10;;
14316;SDS011;7242;50.858;6.586;2024-02-04T02:14:23;1.40;;;1.30;;
14316;SDS011;7242;50.858;6.586;2024-02-04T02:27:23;1.43;;;1.33;;
14316;SDS011;7242;50.858;6.586;2024-02-04T02:30:24;1.30;;;1.20;;
14316;SDS011;7242;50.858;6.586;2024-02-04T02:33:25;2.10;;;1.50;;
14316;SDS011;7242;50.858;6.586;2024-02-04T02:36:26;1.83;;;1.60;;
14316;SDS011;7242;50.858;6.586;2024-02-04T02:39:32;2.13;;;1.50;;
14316;SDS011;7242;50.858;6.586;2024-02-04T02:42:41;1.90;;;1.80;;
14316;SDS011;7242;50.858;6.586;2024-02-04T02:45:44;3.00;;;2.00;;
14316;SDS011;7242;50.858;6.586;2024-02-04T02:48:45;2.60;;;2.40;;
14316;SDS011;7242;50.858;6.586;2024-02-04T02:51:46;2.57;;;2.37;;
14316;SDS011;7242;50.858;6.586;2024-02-04T02:54:47;2.90;;;2.70;;
14316;SDS011;7242;50.858;6.586;2024-02-04T02:57:48;3.43;;;3.03;;
14316;SDS011;7242;50.858;6.586;2024-02-04T03:00:49;3.87;;;3.47;;
14316;SDS011;7242;50.858;6.586;2024-02-04T03:03:50;5.33;;;3.80;;
14316;SDS011;7242;50.858;6.586;2024-02-04T03:06:52;3.90;;;3.53;;
14316;SDS011;7242;50.858;6.586;2024-02-04T03:09:53;3.80;;;3.50;;
14316;SDS011;7242;50.858;6.586;2024-02-04T03:12:54;3.43;;;3.10;;
14316;SDS011;7242;50.858;6.586;2024-02-04T03:15:55;3.70;;;3.07;;
14316;SDS011;7242;50.858;6.586;2024-02-04T03:18:56;3.10;;;2.90;;
14316;SDS011;7242;50.858;6.586;2024-02-04T03:21:57;3.53;;;3.23;;
14316;SDS011;7242;50.858;6.586;2024-02-04T03:24:58;3.00;;;2.80;;
14316;SDS011;7242;50.858;6.586;2024-02-04T03:27:59;4.07;;;3.20;;
14316;SDS011;7242;50.858;6.586;2024-02-04T03:31:00;3.63;;;3.17;;
14316;SDS011;7242;50.858;6.586;2024-02-04T03:34:02;3.60;;;2.90;;
14316;SDS011;7242;50.858;6.586;2024-02-04T03:37:03;2.83;;;2.63;;
14316;SDS011;7242;50.858;6.586;2024-02-04T03:40:04;3.50;;;3.17;;
14316;SDS011;7242;50.858;6.586;2024-02-04T03:43:05;2.77;;;2.57;;
14316;SDS011;7242;50.858;6.586;2024-02-04T03:46:07;2.40;;;2.20;;
14316;SDS011;7242;50.858;6.586;2024-02-04T03:49:08;3.03;;;2.50;;
14316;SDS011;7242;50.858;6.586;2024-02-04T03:52:09;3.00;;;2.80;;
14316;SDS011;7242;50.858;6.586;2024-02-04T03:55:10;2.97;;;2.63;;
14316;SDS011;7242;50.858;6.586;2024-02-04T03:58:11;3.33;;;2.93;;
14316;SDS011;7242;50.858;6.586;2024-02-04T04:01:12;3.23;;;2.90;;
14316;SDS011;7242;50.858;6.586;2024-02-04T04:04:13;4.50;;;4.10;;
14316;SDS011;7242;50.858;6.586;2024-02-04T04:07:14;4.13;;;3.73;;
14316;SDS011;7242;50.858;6.586;2024-02-04T04:10:15;4.47;;;4.17;;
14316;SDS011;7242;50.858;6.586;2024-02-04T04:13:16;3.87;;;3.53;;
14316;SDS011;7242;50.858;6.586;2024-02-04T04:16:20;4.43;;;3.80;;
14316;SDS011;7242;50.858;6.586;2024-02-04T04:19:22;3.80;;;3.47;;
14316;SDS011;7242;50.858;6.586;2024-02-04T04:22:24;4.80;;;3.40;;
14316;SDS011;7242;50.858;6.586;2024-02-04T04:25:26;3.60;;;3.30;;
14316;SDS011;7242;50.858;6.586;2024-02-04T04:28:27;4.10;;;3.70;;
14316;SDS011;7242;50.858;6.586;2024-02-04T04:31:28;3.87;;;3.47;;
14316;SDS011;7242;50.858;6.586;2024-02-04T04:34:29;3.70;;;3.40;;
14316;SDS011;7242;50.858;6.586;2024-02-04T04:37:30;4.50;;;3.47;;
14316;SDS011;7242;50.858;6.586;2024-02-04T04:40:31;3.63;;;3.30;;
14316;SDS011;7242;50.858;6.586;2024-02-04T04:43:32;4.50;;;3.17;;
14316;SDS011;7242;50.858;6.586;2024-02-04T04:46:33;3.23;;;2.93;;
14316;SDS011;7242;50.858;6.586;2024-02-04T04:49:34;3.30;;;3.00;;
14316;SDS011;7242;50.858;6.586;2024-02-04T04:52:35;3.47;;;3.17;;
14316;SDS011;7242;50.858;6.586;2024-02-04T04:55:36;3.20;;;2.90;;
14316;SDS011;7242;50.858;6.586;2024-02-04T04:58:37;3.93;;;3.17;;
14316;SDS011;7242;50.858;6.586;2024-02-04T05:01:44;3.10;;;2.80;;
14316;SDS011;7242;50.858;6.586;2024-02-04T05:04:46;3.13;;;2.80;;
14316;SDS011;7242;50.858;6.586;2024-02-04T05:07:48;3.80;;;3.10;;
14316;SDS011;7242;50.858;6.586;2024-02-04T05:10:48;2.60;;;2.40;;
14316;SDS011;7242;50.858;6.586;2024-02-04T05:13:49;3.10;;;2.80;;
14316;SDS011;7242;50.858;6.586;2024-02-04T05:16:51;3.57;;;3.27;;
14316;SDS011;7242;50.858;6.586;2024-02-04T05:19:51;3.90;;;3.50;;
14316;SDS011;7242;50.858;6.586;2024-02-04T05:22:53;5.63;;;4.17;;
14316;SDS011;7242;50.858;6.586;2024-02-04T05:25:55;4.30;;;3.70;;
14316;SDS011;7242;50.858;6.586;2024-02-04T05:28:55;4.70;;;4.20;;
14316;SDS011;7242;50.858;6.586;2024-02-04T05:31:57;4.67;;;4.23;;
14316;SDS011;7242;50.858;6.586;2024-02-04T05:34:58;5.33;;;4.23;;
14316;SDS011;7242;50.858;6.586;2024-02-04T05:37:59;5.13;;;4.30;;
14316;SDS011;7242;50.858;6.586;2024-02-04T05:41:00;5.17;;;4.67;;
14316;SDS011;7242;50.858;6.586;2024-02-04T05:44:01;5.27;;;4.83;;
14316;SDS011;7242;50.858;6.586;2024-02-04T05:47:02;7.07;;;5.03;;
14316;SDS011;7242;50.858;6.586;2024-02-04T05:50:02;5.73;;;4.70;;
14316;SDS011;7242;50.858;6.586;2024-02-04T05:53:03;6.33;;;4.90;;
14316;SDS011;7242;50.858;6.586;2024-02-04T05:56:05;4.90;;;4.00;;
14316;SDS011;7242;50.858;6.586;2024-02-04T05:59:06;4.83;;;3.60;;
14316;SDS011;7242;50.858;6.586;2024-02-04T06:02:07;3.90;;;3.50;;
14316;SDS011;7242;50.858;6.586;2024-02-04T06:05:08;4.50;;;3.20;;
14316;SDS011;7242;50.858;6.586;2024-02-04T06:08:10;2.50;;;2.30;;
14316;SDS011;7242;50.858;6.586;2024-02-04T06:11:14;3.00;;;2.70;;
14316;SDS011;7242;50.858;6.586;2024-02-04T06:14:15;2.57;;;2.37;;
14316;SDS011;7242;50.858;6.586;2024-02-04T06:17:16;2.73;;;2.53;;
14316;SDS011;7242;50.858;6.586;2024-02-04T06:20:17;2.10;;;1.90;;
14316;SDS011;7242;50.858;6.586;2024-02-04T06:23:18;2.40;;;1.80;;
14316;SDS011;7242;50.858;6.586;2024-02-04T06:26:20;1.80;;;1.70;;
14316;SDS011;7242;50.858;6.586;2024-02-04T06:29:21;1.70;;;1.60;;
14316;SDS011;7242;50.858;6.586;2024-02-04T06:32:22;1.87;;;1.77;;
14316;SDS011;7242;50.858;6.586;2024-02-04T06:35:24;1.63;;;1.53;;
14316;SDS011;7242;50.858;6.586;2024-02-04T06:38:25;1.60;;;1.50;;
14316;SDS011;7242;50.858;6.586;2024-02-04T06:41:26;1.80;;;1.70;;
14316;SDS011;7242;50.858;6.586;2024-02-04T06:44:27;2.13;;;1.90;;
14316;SDS011;7242;50.858;6.586;2024-02-04T06:47:29;3.10;;;1.90;;
14316;SDS011;7242;50.858;6.586;2024-02-04T06:50:30;2.47;;;1.80;;
14316;SDS011;7242;50.858;6.586;2024-02-04T06:53:30;2.57;;;1.87;;
14316;SDS011;7242;50.858;6.586;2024-02-04T06:56:31;3.07;;;1.63;;
14316;SDS011;7242;50.858;6.586;2024-02-04T06:59:32;1.80;;;1.70;;
14316;SDS011;7242;50.858;6.586;2024-02-04T07:02:36;3.17;;;1.77;;
14316;SDS011;7242;50.858;6.586;2024-02-04T07:05:37;2.00;;;1.90;;
14316;SDS011;7242;50.858;6.586;2024-02-04T07:08:39;2.20;;;1.90;;
14316;SDS011;7242;50.858;6.586;2024-02-04T07:11:39;1.80;;;1.70;;
14316;SDS011;7242;50.858;6.586;2024-02-04T07:14:40;2.00;;;1.90;;
14316;SDS011;7242;50.858;6.586;2024-02-04T07:17:41;1.60;;;1.50;;
14316;SDS011;7242;50.858;6.586;2024-02-04T07:20:42;1.80;;;1.70;;
14316;SDS011;7242;50.858;6.586;2024-02-04T07:23:44;1.77;;;1.67;;
14316;SDS011;7242;50.858;6.586;2024-02-04T07:26:45;1.43;;;1.33;;
14316;SDS011;7242;50.858;6.586;2024-02-04T07:29:46;1.63;;;1.53;;
14316;SDS011;7242;50.858;6.586;2024-02-04T07:32:47;2.20;;;1.53;;
14316;SDS011;7242;50.858;6.586;2024-02-04T07:35:48;2.53;;;1.40;;
14316;SDS011;7242;50.858;6.586;2024-02-04T07:38:49;1.40;;;1.30;;
14316;SDS011;7242;50.858;6.586;2024-02-04T07:41:50;1.63;;;1.40;;
14316;SDS011;7242;50.858;6.586;2024-02-04T07:44:50;1.60;;;1.50;;
14316;SDS011;7242;50.858;6.586;2024-02-04T07:47:52;2.33;;;1.60;;
14316;SDS011;7242;50.858;6.586;2024-02-04T07:50:52;1.67;;;1.40;;
14316;SDS011;7242;50.858;6.586;2024-02-04T07:53:54;1.67;;;1.50;;
14316;SDS011;7242;50.858;6.586;2024-02-04T07:56:55;1.50;;;1.40;;
14316;SDS011;7242;50.858;6.586;2024-02-04T07:59:56;1.30;;;1.20;;
14316;SDS011;7242;50.858;6.586;2024-02-04T08:02:57;1.43;;;1.33;;
14316;SDS011;7242;50.858;6.586;2024-02-04T08:05:58;3.63;;;1.70;;
14316;SDS011;7242;50.858;6.586;2024-02-04T08:09:00;1.87;;;1.50;;
14316;SDS011;7242;50.858;6.586;2024-02-04T08:12:00;1.80;;;1.50;;
14316;SDS011;7242;50.858;6.586;2024-02-04T08:15:01;1.80;;;1.70;;
14316;SDS011;7242;50.858;6.586;2024-02-04T08:18:02;1.80;;;1.70;;
14316;SDS011;7242;50.858;6.586;2024-02-04T08:21:04;2.37;;;2.17;;
14316;SDS011;7242;50.858;6.586;2024-02-04T08:24:05;1.80;;;1.70;;
14316;SDS011;7242;50.858;6.586;2024-02-04T08:27:06;1.80;;;1.70;;
14316;SDS011;7242;50.858;6.586;2024-02-04T08:30:07;2.13;;;1.90;;
14316;SDS011;7242;50.858;6.586;2024-02-04T08:33:09;2.17;;;1.97;;
14316;SDS011;7242;50.858;6.586;2024-02-04T08:36:10;2.23;;;1.80;;
14316;SDS011;7242;50.858;6.586;2024-02-04T08:39:11;2.17;;;1.80;;
14316;SDS011;7242;50.858;6.586;2024-02-04T08:42:12;1.90;;;1.70;;
14316;SDS011;7242;50.858;6.586;2024-02-04T08:45:13;2.77;;;1.93;;
14316;SDS011;7242;50.858;6.586;2024-02-04T08:48:14;1.90;;;1.80;;
14316;SDS011;7242;50.858;6.586;2024-02-04T08:51:15;1.60;;;1.50;;
14316;SDS011;7242;50.858;6.586;2024-02-04T08:54:18;1.50;;;1.40;;
14316;SDS011;7242;50.858;6.586;2024-02-04T08:57:20;1.30;;;1.27;;
14316;SDS011;7242;50.858;6.586;2024-02-04T09:00:21;2.83;;;1.43;;
14316;SDS011;7242;50.858;6.586;2024-02-04T09:03:22;1.47;;;1.33;;
14316;SDS011;7242;50.858;6.586;2024-02-04T09:06:23;2.07;;;1.40;;
14316;SDS011;7242;50.858;6.586;2024-02-04T09:09:24;1.40;;;1.30;;
14316;SDS011;7242;50.858;6.586;2024-02-04T09:12:26;1.23;;;1.10;;
14316;SDS011;7242;50.858;6.586;2024-02-04T09:15:27;1.90;;;1.20;;
14316;SDS011;7242;50.858;6.586;2024-02-04T09:18:28;1.43;;;1.10;;
14316;SDS011;7242;50.858;6.586;2024-02-04T09:21:28;2.10;;;1.10;;
14316;SDS011;7242;50.858;6.586;2024-02-04T09:24:29;1.17;;;1.03;;
14316;SDS011;7242;50.858;6.586;2024-02-04T09:27:31;1.37;;;1.10;;
14316;SDS011;7242;50.858;6.586;2024-02-04T09:30:32;1.43;;;1.33;;
14316;SDS011;7242;50.858;6.586;2024-02-04T09:33:33;2.93;;;1.10;;
14316;SDS011;7242;50.858;6.586;2024-02-04T09:36:35;1.57;;;1.47;;
14316;SDS011;7242;50.858;6.586;2024-02-04T09:39:36;1.43;;;1.33;;
14316;SDS011;7242;50.858;6.586;2024-02-04T09:42:37;2.30;;;1.50;;
14316;SDS011;7242;50.858;6.586;2024-02-04T09:45:38;1.20;;;1.10;;
14316;SDS011;7242;50.858;6.586;2024-02-04T09:48:40;1.30;;;1.30;;
14316;SDS011;7242;50.858;6.586;2024-02-04T09:51:41;1.60;;;1.50;;
14316;SDS011;7242;50.858;6.586;2024-02-04T09:54:49;2.07;;;1.60;;
14316;SDS011;7242;50.858;6.586;2024-02-04T09:57:55;2.13;;;1.50;;
14316;SDS011;7242;50.858;6.586;2024-02-04T10:00:57;1.60;;;1.37;;
14316;SDS011;7242;50.858;6.586;2024-02-04T10:03:58;1.37;;;1.27;;
14316;SDS011;7242;50.858;6.586;2024-02-04T10:06:59;1.57;;;1.40;;
14316;SDS011;7242;50.858;6.586;2024-02-04T10:10:01;1.33;;;1.30;;
14316;SDS011;7242;50.858;6.586;2024-02-04T10:13:06;2.10;;;1.77;;
14316;SDS011;7242;50.858;6.586;2024-02-04T10:16:08;1.80;;;1.67;;
14316;SDS011;7242;50.858;6.586;2024-02-04T10:19:09;2.00;;;1.70;;
14316;SDS011;7242;50.858;6.586;2024-02-04T10:22:11;1.30;;;1.20;;
14316;SDS011;7242;50.858;6.586;2024-02-04T10:25:12;1.83;;;1.40;;
14316;SDS011;7242;50.858;6.586;2024-02-04T10:28:15;1.93;;;1.40;;
14316;SDS011;7242;50.858;6.586;2024-02-04T10:31:16;3.40;;;1.50;;
14316;SDS011;7242;50.858;6.586;2024-02-04T10:34:17;2.27;;;1.30;;
14316;SDS011;7242;50.858;6.586;2024-02-04T10:37:18;2.57;;;1.10;;
14316;SDS011;7242;50.858;6.586;2024-02-04T10:40:19;1.40;;;1.17;;
14316;SDS011;7242;50.858;6.586;2024-02-04T10:43:20;1.40;;;1.20;;
14316;SDS011;7242;50.858;6.586;2024-02-04T10:46:24;1.33;;;1.10;;
14316;SDS011;7242;50.858;6.586;2024-02-04T10:49:30;1.67;;;1.20;;
14316;SDS011;7242;50.858;6.586;2024-02-04T10:52:37;0.87;;;0.87;;
14316;SDS011;7242;50.858;6.586;2024-02-04T10:55:42;0.90;;;0.90;;
14316;SDS011;7242;50.858;6.586;2024-02-04T10:58:47;1.47;;;1.13;;
14316;SDS011;7242;50.858;6.586;2024-02-04T11:01:48;0.80;;;0.80;;
14316;SDS011;7242;50.858;6.586;2024-02-04T11:04:50;1.47;;;0.90;;
14316;SDS011;7242;50.858;6.586;2024-02-04T11:07:51;2.47;;;1.00;;
14316;SDS011;7242;50.858;6.586;2024-02-04T11:10:53;1.10;;;1.00;;
14316;SDS011;7242;50.858;6.586;2024-02-04T11:13:55;1.57;;;1.10;;
14316;SDS011;7242;50.858;6.586;2024-02-04T11:17:09;1.90;;;0.90;;
14316;SDS011;7242;50.858;6.586;2024-02-04T11:20:20;2.13;;;1.20;;
14316;SDS011;7242;50.858;6.586;2024-02-04T11:26:56;3.40;;;2.47;;
14316;SDS011;7242;50.858;6.586;2024-02-04T11:29:58;2.57;;;1.90;;
14316;SDS011;7242;50.858;6.586;2024-02-04T11:33:02;4.10;;;2.10;;
14316;SDS011;7242;50.858;6.586;2024-02-04T11:36:04;2.97;;;1.97;;
14316;SDS011;7242;50.858;6.586;2024-02-04T11:39:13;2.03;;;1.70;;
14316;SDS011;7242;50.858;6.586;2024-02-04T11:42:15;3.67;;;2.17;;
14316;SDS011;7242;50.858;6.586;2024-02-04T11:45:16;2.00;;;1.80;;
14316;SDS011;7242;50.858;6.586;2024-02-04T11:48:17;3.07;;;2.20;;
14316;SDS011;7242;50.858;6.586;2024-02-04T11:51:18;2.70;;;2.00;;
14316;SDS011;7242;50.858;6.586;2024-02-04T11:54:20;2.47;;;1.60;;
14316;SDS011;7242;50.858;6.586;2024-02-04T11:57:22;3.47;;;1.80;;
14316;SDS011;7242;50.858;6.586;2024-02-04T12:00:23;2.20;;;1.70;;
14316;SDS011;7242;50.858;6.586;2024-02-04T12:03:28;1.70;;;1.60;;
14316;SDS011;7242;50.858;6.586;2024-02-04T12:06:30;2.53;;;1.47;;
14316;SDS011;7242;50.858;6.586;2024-02-04T12:09:31;2.10;;;1.70;;
14316;SDS011;7242;50.858;6.586;2024-02-04T12:12:32;1.80;;;1.70;;
14316;SDS011;7242;50.858;6.586;2024-02-04T12:15:34;1.83;;;1.60;;
14316;SDS011;7242;50.858;6.586;2024-02-04T12:18:36;1.57;;;1.23;;
14316;SDS011;7242;50.858;6.586;2024-02-04T12:21:47;1.30;;;1.20;;
14316;SDS011;7242;50.858;6.586;2024-02-04T12:24:48;1.40;;;1.30;;
14316;SDS011;7242;50.858;6.586;2024-02-04T12:27:50;1.50;;;1.40;;
14316;SDS011;7242;50.858;6.586;2024-02-04T12:30:52;1.90;;;1.70;;
14316;SDS011;7242;50.858;6.586;2024-02-04T12:33:55;1.70;;;1.50;;
14316;SDS011;7242;50.858;6.586;2024-02-04T12:37:01;1.60;;;1.50;;
14316;SDS011;7242;50.858;6.586;2024-02-04T12:40:02;1.80;;;1.53;;
14316;SDS011;7242;50.858;6.586;2024-02-04T12:43:03;2.00;;;1.90;;
14316;SDS011;7242;50.858;6.586;2024-02-04T12:46:05;2.60;;;2.00;;
14316;SDS011;7242;50.858;6.586;2024-02-04T12:49:08;2.47;;;2.27;;
14316;SDS011;7242;50.858;6.586;2024-02-04T12:52:09;2.40;;;2.20;;
14316;SDS011;7242;50.858;6.586;2024-02-04T12:55:21;2.67;;;2.30;;
14316;SDS011;7242;50.858;6.586;2024-02-04T12:58:24;3.17;;;2.30;;
14316;SDS011;7242;50.858;6.586;2024-02-04T13:01:25;2.50;;;2.30;;
14316;SDS011;7242;50.858;6.586;2024-02-04T13:04:26;2.53;;;2.33;;
14316;SDS011;7242;50.858;6.586;2024-02-04T13:07:33;3.30;;;2.60;;
14316;SDS011;7242;50.858;6.586;2024-02-04T13:10:35;2.80;;;2.60;;
14316;SDS011;7242;50.858;6.586;2024-02-04T13:13:36;2.80;;;2.47;;
14316;SDS011;7242;50.858;6.586;2024-02-04T13:16:38;3.00;;;2.30;;
14316;SDS011;7242;50.858;6.586;2024-02-04T13:19:39;2.50;;;2.30;;
14316;SDS011;7242;50.858;6.586;2024-02-04T13:22:41;3.43;;;2.27;;
14316;SDS011;7242;50.858;6.586;2024-02-04T13:25:42;2.47;;;2.07;;
14316;SDS011;7242;50.858;6.586;2024-02-04T13:28:45;3.27;;;2.00;;
14316;SDS011;7242;50.858;6.586;2024-02-04T13:31:46;2.03;;;1.93;;
14316;SDS011;7242;50.858;6.586;2024-02-04T13:34:47;2.13;;;2.00;;
14316;SDS011;7242;50.858;6.586;2024-02-04T13:37:49;2.20;;;2.00;;
14316;SDS011;7242;50.858;6.586;2024-02-04T13:40:55;3.53;;;2.10;;
14316;SDS011;7242;50.858;6.586;2024-02-04T13:43:57;2.00;;;1.90;;
14316;SDS011;7242;50.858;6.586;2024-02-04T13:46:58;2.07;;;1.97;;
14316;SDS011;7242;50.858;6.586;2024-02-04T13:50:00;2.30;;;2.10;;
14316;SDS011;7242;50.858;6.586;2024-02-04T13:53:03;2.10;;;1.90;;
14316;SDS011;7242;50.858;6.586;2024-02-04T13:56:04;2.30;;;1.70;;
14316;SDS011;7242;50.858;6.586;2024-02-04T13:59:05;1.43;;;1.33;;
14316;SDS011;7242;50.858;6.586;2024-02-04T14:02:07;1.67;;;1.57;;
14316;SDS011;7242;50.858;6.586;2024-02-04T14:05:10;2.13;;;1.60;;
14316;SDS011;7242;50.858;6.586;2024-02-04T14:08:11;1.70;;;1.60;;
14316;SDS011;7242;50.858;6.586;2024-02-04T14:11:12;1.87;;;1.60;;
14316;SDS011;7242;50.858;6.586;2024-02-04T14:14:13;2.07;;;1.70;;
14316;SDS011;7242;50.858;6.586;2024-02-04T14:17:14;2.10;;;1.50;;
14316;SDS011;7242;50.858;6.586;2024-02-04T14:20:15;1.60;;;1.50;;
14316;SDS011;7242;50.858;6.586;2024-02-04T14:23:17;2.10;;;1.87;;
14316;SDS011;7242;50.858;6.586;2024-02-04T14:26:18;2.20;;;1.97;;
14316;SDS011;7242;50.858;6.586;2024-02-04T14:29:20;2.03;;;1.93;;
14316;SDS011;7242;50.858;6.586;2024-02-04T14:32:21;2.07;;;1.60;;
14316;SDS011;7242;50.858;6.586;2024-02-04T14:35:23;2.77;;;2.13;;
14316;SDS011;7242;50.858;6.586;2024-02-04T14:38:23;2.40;;;1.70;;
14316;SDS011;7242;50.858;6.586;2024-02-04T14:41:24;3.07;;;2.10;;
14316;SDS011;7242;50.858;6.586;2024-02-04T14:44:25;1.97;;;1.80;;
14316;SDS011;7242;50.858;6.586;2024-02-04T14:47:27;2.37;;;1.90;;
14316;SDS011;7242;50.858;6.586;2024-02-04T14:50:28;1.80;;;1.70;;
14316;SDS011;7242;50.858;6.586;2024-02-04T14:53:28;2.70;;;1.93;;
14316;SDS011;7242;50.858;6.586;2024-02-04T14:56:30;3.13;;;1.73;;
14316;SDS011;7242;50.858;6.586;2024-02-04T14:59:31;3.00;;;1.70;;
14316;SDS011;7242;50.858;6.586;2024-02-04T15:02:37;3.50;;;2.10;;
14316;SDS011;7242;50.858;6.586;2024-02-04T15:05:39;2.73;;;2.07;;
14316;SDS011;7242;50.858;6.586;2024-02-04T15:08:41;2.10;;;2.00;;
14316;SDS011;7242;50.858;6.586;2024-02-04T15:11:42;2.83;;;1.90;;
14316;SDS011;7242;50.858;6.586;2024-02-04T15:14:43;3.20;;;1.80;;
14316;SDS011;7242;50.858;6.586;2024-02-04T15:17:44;2.40;;;1.20;;
14316;SDS011;7242;50.858;6.586;2024-02-04T15:20:46;1.43;;;1.33;;
14316;SDS011;7242;50.858;6.586;2024-02-04T15:23:46;1.60;;;1.50;;
14316;SDS011;7242;50.858;6.586;2024-02-04T15:26:48;2.17;;;1.40;;
14316;SDS011;7242;50.858;6.586;2024-02-04T15:29:50;1.23;;;1.13;;
14316;SDS011;7242;50.858;6.586;2024-02-04T15:32:52;1.10;;;1.00;;
14316;SDS011;7242;50.858;6.586;2024-02-04T15:35:54;1.40;;;1.30;;
14316;SDS011;7242;50.858;6.586;2024-02-04T15:38:56;1.17;;;1.00;;
14316;SDS011;7242;50.858;6.586;2024-02-04T15:41:56;1.33;;;0.83;;
14316;SDS011;7242;50.858;6.586;2024-02-04T15:44:58;0.80;;;0.80;;
14316;SDS011;7242;50.858;6.586;2024-02-04T15:47:58;1.63;;;0.90;;
14316;SDS011;7242;50.858;6.586;2024-02-04T15:51:04;0.93;;;0.90;;
14316;SDS011;7242;50.858;6.586;2024-02-04T15:54:06;1.20;;;0.83;;
14316;SDS011;7242;50.858;6.586;2024-02-04T15:57:08;1.60;;;0.90;;
14316;SDS011;7242;50.858;6.586;2024-02-04T16:00:10;1.40;;;0.90;;
14316;SDS011;7242;50.858;6.586;2024-02-04T16:03:18;0.80;;;0.80;;
14316;SDS011;7242;50.858;6.586;2024-02-04T16:06:19;0.80;;;0.80;;
14316;SDS011;7242;50.858;6.586;2024-02-04T16:09:21;0.80;;;0.70;;
14316;SDS011;7242;50.858;6.586;2024-02-04T16:12:22;1.50;;;0.80;;
14316;SDS011;7242;50.858;6.586;2024-02-04T16:15:27;1.10;;;0.90;;
14316;SDS011;7242;50.858;6.586;2024-02-04T16:18:29;0.87;;;0.87;;
14316;SDS011;7242;50.858;6.586;2024-02-04T16:21:30;1.97;;;0.90;;
14316;SDS011;7242;50.858;6.586;2024-02-04T16:24:31;0.77;;;0.77;;
14316;SDS011;7242;50.858;6.586;2024-02-04T16:27:32;0.70;;;0.70;;
14316;SDS011;7242;50.858;6.586;2024-02-04T16:30:33;0.90;;;0.90;;
14316;SDS011;7242;50.858;6.586;2024-02-04T16:33:34;1.87;;;0.90;;
14316;SDS011;7242;50.858;6.586;2024-02-04T16:36:36;2.90;;;0.80;;
14316;SDS011;7242;50.858;6.586;2024-02-04T16:39:38;1.00;;;0.97;;
14316;SDS011;7242;50.858;6.586;2024-02-04T16:42:39;0.97;;;0.90;;
14316;SDS011;7242;50.858;6.586;2024-02-04T16:45:40;1.17;;;1.07;;
14316;SDS011;7242;50.858;6.586;2024-02-04T16:48:42;0.77;;;0.77;;
14316;SDS011;7242;50.858;6.586;2024-02-04T16:51:43;0.90;;;0.90;;
14316;SDS011;7242;50.858;6.586;2024-02-04T16:54:44;0.90;;;0.90;;
14316;SDS011;7242;50.858;6.586;2024-02-04T16:57:46;3.03;;;1.13;;
14316;SDS011;7242;50.858;6.586;2024-02-04T17:00:46;1.40;;;1.30;;
14316;SDS011;7242;50.858;6.586;2024-02-04T17:03:47;1.57;;;1.13;;
14316;SDS011;7242;50.858;6.586;2024-02-04T17:06:50;2.00;;;1.53;;
14316;SDS011;7242;50.858;6.586;2024-02-04T17:09:52;1.50;;;1.40;;
14316;SDS011;7242;50.858;6.586;2024-02-04T17:12:54;1.70;;;1.60;;
14316;SDS011;7242;50.858;6.586;2024-02-04T17:15:56;2.20;;;1.30;;
14316;SDS011;7242;50.858;6.586;2024-02-04T17:22:13;2.00;;;1.50;;
14316;SDS011;7242;50.858;6.586;2024-02-04T17:25:19;1.93;;;1.30;;
14316;SDS011;7242;50.858;6.586;2024-02-04T17:28:24;1.67;;;1.30;;
14316;SDS011;7242;50.858;6.586;2024-02-04T17:31:25;1.50;;;1.30;;
14316;SDS011;7242;50.858;6.586;2024-02-04T17:34:27;1.53;;;1.23;;
14316;SDS011;7242;50.858;6.586;2024-02-04T17:37:28;2.07;;;1.30;;
14316;SDS011;7242;50.858;6.586;2024-02-04T17:40:30;1.67;;;1.57;;
14316;SDS011;7242;50.858;6.586;2024-02-04T17:43:32;1.90;;;1.63;;
14316;SDS011;7242;50.858;6.586;2024-02-04T17:46:36;1.80;;;1.70;;
14316;SDS011;7242;50.858;6.586;2024-02-04T17:49:37;2.23;;;2.00;;
14316;SDS011;7242;50.858;6.586;2024-02-04T17:52:39;2.60;;;2.03;;
14316;SDS011;7242;50.858;6.586;2024-02-04T17:55:41;3.23;;;2.27;;
14316;SDS011;7242;50.858;6.586;2024-02-04T17:58:43;2.30;;;2.10;;
14316;SDS011;7242;50.858;6.586;2024-02-04T18:01:44;2.57;;;2.00;;
14316;SDS011;7242;50.858;6.586;2024-02-04T18:04:45;3.20;;;2.10;;
14316;SDS011;7242;50.858;6.586;2024-02-04T18:07:47;2.20;;;2.00;;
14316;SDS011;7242;50.858;6.586;2024-02-04T18:10:49;3.87;;;2.07;;
14316;SDS011;7242;50.858;6.586;2024-02-04T18:13:51;2.73;;;2.20;;
14316;SDS011;7242;50.858;6.586;2024-02-04T18:16:53;3.00;;;2.10;;
14316;SDS011;7242;50.858;6.586;2024-02-04T18:19:54;2.40;;;2.20;;
14316;SDS011;7242;50.858;6.586;2024-02-04T18:22:56;2.17;;;1.97;;
14316;SDS011;7242;50.858;6.586;2024-02-04T18:25:57;2.17;;;1.80;;
14316;SDS011;7242;50.858;6.586;2024-02-04T18:28:59;2.37;;;2.03;;
14316;SDS011;7242;50.858;6.586;2024-02-04T18:32:01;2.07;;;1.97;;
14316;SDS011;7242;50.858;6.586;2024-02-04T18:35:03;2.17;;;1.97;;
14316;SDS011;7242;50.858;6.586;2024-02-04T18:38:04;1.93;;;1.83;;
14316;SDS011;7242;50.858;6.586;2024-02-04T18:41:06;2.20;;;1.90;;
14316;SDS011;7242;50.858;6.586;2024-02-04T18:44:09;2.57;;;1.80;;
14316;SDS011;7242;50.858;6.586;2024-02-04T18:47:12;2.17;;;1.70;;